sensor_id;sensor_type;location;lat;lon;timestamp;P1;durP1;ratioP1;P2;durP2;ratioP2
37641;SDS011;23486;51.956;5.888;2023-09-08T00:02:22;5.50;;;4.13;;
37641;SDS011;23486;51.956;5.888;2023-09-08T00:04:49;4.72;;;4.07;;
37641;SDS011;23486;51.956;5.888;2023-09-08T00:07:14;6.20;;;4.70;;
37641;SDS011;23486;51.956;5.888;2023-09-08T00:09:40;5.63;;;4.50;;
37641;SDS011;23486;51.956;5.888;2023-09-08T00:12:06;4.90;;;3.97;;
37641;SDS011;23486;51.956;5.888;2023-09-08T00:14:31;7.13;;;5.57;;
37641;SDS011;23486;51.956;5.888;2023-09-08T00:16:57;5.85;;;5.13;;
37641;SDS011;23486;51.956;5.888;2023-09-08T00:19:22;6.07;;;5.00;;
37641;SDS011;23486;51.956;5.888;2023-09-08T00:21:48;6.68;;;5.13;;
37641;SDS011;23486;51.956;5.888;2023-09-08T00:24:14;6.45;;;5.50;;
37641;SDS011;23486;51.956;5.888;2023-09-08T00:26:40;5.85;;;4.97;;
37641;SDS011;23486;51.956;5.888;2023-09-08T00:29:06;5.40;;;4.32;;
37641;SDS011;23486;51.956;5.888;2023-09-08T00:31:32;5.05;;;4.25;;
37641;SDS011;23486;51.956;5.888;2023-09-08T00:33:58;7.47;;;4.82;;
37641;SDS011;23486;51.956;5.888;2023-09-08T00:36:24;6.28;;;4.10;;
37641;SDS011;23486;51.956;5.888;2023-09-08T00:38:49;6.60;;;4.35;;
37641;SDS011;23486;51.956;5.888;2023-09-08T00:41:18;6.53;;;4.15;;
37641;SDS011;23486;51.956;5.888;2023-09-08T00:43:43;5.38;;;4.45;;
37641;SDS011;23486;51.956;5.888;2023-09-08T00:46:09;7.43;;;5.28;;
37641;SDS011;23486;51.956;5.888;2023-09-08T00:48:36;6.22;;;5.05;;
37641;SDS011;23486;51.956;5.888;2023-09-08T00:51:02;6.65;;;5.57;;
37641;SDS011;23486;51.956;5.888;2023-09-08T00:53:30;5.22;;;4.72;;
37641;SDS011;23486;51.956;5.888;2023-09-08T00:55:56;5.85;;;4.40;;
37641;SDS011;23486;51.956;5.888;2023-09-08T00:58:23;8.00;;;5.28;;
37641;SDS011;23486;51.956;5.888;2023-09-08T01:00:48;6.28;;;4.70;;
37641;SDS011;23486;51.956;5.888;2023-09-08T01:03:14;7.22;;;4.72;;
37641;SDS011;23486;51.956;5.888;2023-09-08T01:05:39;7.68;;;5.65;;
37641;SDS011;23486;51.956;5.888;2023-09-08T01:08:06;6.50;;;5.05;;
37641;SDS011;23486;51.956;5.888;2023-09-08T01:10:32;8.68;;;5.85;;
37641;SDS011;23486;51.956;5.888;2023-09-08T01:12:58;6.88;;;5.45;;
37641;SDS011;23486;51.956;5.888;2023-09-08T01:15:24;7.00;;;6.07;;
37641;SDS011;23486;51.956;5.888;2023-09-08T01:17:50;6.25;;;4.80;;
37641;SDS011;23486;51.956;5.888;2023-09-08T01:20:17;6.57;;;5.40;;
37641;SDS011;23486;51.956;5.888;2023-09-08T01:25:44;6.22;;;5.20;;
37641;SDS011;23486;51.956;5.888;2023-09-08T01:28:22;6.20;;;5.05;;
37641;SDS011;23486;51.956;5.888;2023-09-08T01:30:48;7.25;;;5.10;;
37641;SDS011;23486;51.956;5.888;2023-09-08T01:33:15;6.28;;;5.65;;
37641;SDS011;23486;51.956;5.888;2023-09-08T01:35:44;8.65;;;6.25;;
37641;SDS011;23486;51.956;5.888;2023-09-08T01:38:10;5.47;;;4.80;;
37641;SDS011;23486;51.956;5.888;2023-09-08T01:40:36;7.00;;;5.97;;
37641;SDS011;23486;51.956;5.888;2023-09-08T01:43:01;6.45;;;5.72;;
37641;SDS011;23486;51.956;5.888;2023-09-08T01:45:27;6.65;;;5.63;;
37641;SDS011;23486;51.956;5.888;2023-09-08T01:47:53;6.38;;;5.40;;
37641;SDS011;23486;51.956;5.888;2023-09-08T01:50:18;7.72;;;6.10;;
37641;SDS011;23486;51.956;5.888;2023-09-08T01:52:47;7.38;;;5.35;;
37641;SDS011;23486;51.956;5.888;2023-09-08T01:55:15;8.23;;;5.50;;
37641;SDS011;23486;51.956;5.888;2023-09-08T01:57:42;6.00;;;4.63;;
37641;SDS011;23486;51.956;5.888;2023-09-08T02:00:08;6.63;;;5.25;;
37641;SDS011;23486;51.956;5.888;2023-09-08T02:02:35;6.30;;;4.93;;
37641;SDS011;23486;51.956;5.888;2023-09-08T02:05:00;7.22;;;5.75;;
37641;SDS011;23486;51.956;5.888;2023-09-08T02:07:26;7.85;;;6.13;;
37641;SDS011;23486;51.956;5.888;2023-09-08T02:09:51;7.28;;;5.72;;
37641;SDS011;23486;51.956;5.888;2023-09-08T02:12:17;7.47;;;6.18;;
37641;SDS011;23486;51.956;5.888;2023-09-08T02:14:43;7.63;;;6.03;;
37641;SDS011;23486;51.956;5.888;2023-09-08T02:17:08;8.70;;;6.18;;
37641;SDS011;23486;51.956;5.888;2023-09-08T02:19:34;8.07;;;6.30;;
37641;SDS011;23486;51.956;5.888;2023-09-08T02:22:00;7.40;;;5.97;;
37641;SDS011;23486;51.956;5.888;2023-09-08T02:24:25;8.38;;;6.55;;
37641;SDS011;23486;51.956;5.888;2023-09-08T02:26:51;8.60;;;6.43;;
37641;SDS011;23486;51.956;5.888;2023-09-08T02:29:18;7.18;;;6.47;;
37641;SDS011;23486;51.956;5.888;2023-09-08T02:31:43;7.15;;;5.45;;
37641;SDS011;23486;51.956;5.888;2023-09-08T02:34:09;7.78;;;6.25;;
37641;SDS011;23486;51.956;5.888;2023-09-08T02:36:36;9.57;;;7.43;;
37641;SDS011;23486;51.956;5.888;2023-09-08T02:39:01;9.32;;;6.18;;
37641;SDS011;23486;51.956;5.888;2023-09-08T02:41:27;9.20;;;6.80;;
37641;SDS011;23486;51.956;5.888;2023-09-08T02:43:53;8.50;;;5.85;;
37641;SDS011;23486;51.956;5.888;2023-09-08T02:46:18;8.52;;;6.30;;
37641;SDS011;23486;51.956;5.888;2023-09-08T02:48:44;8.05;;;6.57;;
37641;SDS011;23486;51.956;5.888;2023-09-08T02:51:09;9.45;;;7.03;;
37641;SDS011;23486;51.956;5.888;2023-09-08T02:53:37;8.70;;;6.65;;
37641;SDS011;23486;51.956;5.888;2023-09-08T02:56:02;8.73;;;6.88;;
37641;SDS011;23486;51.956;5.888;2023-09-08T02:58:30;8.55;;;6.47;;
37641;SDS011;23486;51.956;5.888;2023-09-08T03:01:03;9.20;;;7.53;;
37641;SDS011;23486;51.956;5.888;2023-09-08T03:03:39;7.53;;;6.35;;
37641;SDS011;23486;51.956;5.888;2023-09-08T03:06:05;8.80;;;7.57;;
37641;SDS011;23486;51.956;5.888;2023-09-08T03:08:31;12.32;;;7.25;;
37641;SDS011;23486;51.956;5.888;2023-09-08T03:10:57;10.05;;;6.78;;
37641;SDS011;23486;51.956;5.888;2023-09-08T03:13:24;9.00;;;6.95;;
37641;SDS011;23486;51.956;5.888;2023-09-08T03:15:51;10.20;;;7.05;;
37641;SDS011;23486;51.956;5.888;2023-09-08T03:18:17;8.98;;;7.30;;
37641;SDS011;23486;51.956;5.888;2023-09-08T03:20:42;9.05;;;7.38;;
37641;SDS011;23486;51.956;5.888;2023-09-08T03:23:08;8.95;;;6.65;;
37641;SDS011;23486;51.956;5.888;2023-09-08T03:25:34;8.35;;;6.78;;
37641;SDS011;23486;51.956;5.888;2023-09-08T03:27:59;8.32;;;7.25;;
37641;SDS011;23486;51.956;5.888;2023-09-08T03:30:25;9.38;;;7.47;;
37641;SDS011;23486;51.956;5.888;2023-09-08T03:32:50;11.32;;;7.40;;
37641;SDS011;23486;51.956;5.888;2023-09-08T03:35:16;10.63;;;7.55;;
37641;SDS011;23486;51.956;5.888;2023-09-08T03:37:42;8.43;;;7.00;;
37641;SDS011;23486;51.956;5.888;2023-09-08T03:40:07;10.50;;;7.72;;
37641;SDS011;23486;51.956;5.888;2023-09-08T03:42:34;9.55;;;7.55;;
37641;SDS011;23486;51.956;5.888;2023-09-08T03:45:00;10.43;;;8.02;;
37641;SDS011;23486;51.956;5.888;2023-09-08T03:47:25;10.30;;;7.50;;
37641;SDS011;23486;51.956;5.888;2023-09-08T03:49:51;9.68;;;7.80;;
37641;SDS011;23486;51.956;5.888;2023-09-08T03:52:17;12.25;;;9.25;;
37641;SDS011;23486;51.956;5.888;2023-09-08T03:54:42;9.07;;;7.40;;
37641;SDS011;23486;51.956;5.888;2023-09-08T03:57:08;12.13;;;7.95;;
37641;SDS011;23486;51.956;5.888;2023-09-08T03:59:33;11.18;;;8.77;;
37641;SDS011;23486;51.956;5.888;2023-09-08T04:01:59;8.85;;;7.95;;
37641;SDS011;23486;51.956;5.888;2023-09-08T04:04:26;12.05;;;8.32;;
37641;SDS011;23486;51.956;5.888;2023-09-08T04:06:51;10.23;;;8.65;;
37641;SDS011;23486;51.956;5.888;2023-09-08T04:09:17;8.52;;;7.28;;
37641;SDS011;23486;51.956;5.888;2023-09-08T04:11:42;9.70;;;7.75;;
37641;SDS011;23486;51.956;5.888;2023-09-08T04:14:08;11.43;;;8.13;;
37641;SDS011;23486;51.956;5.888;2023-09-08T04:16:34;10.77;;;8.85;;
37641;SDS011;23486;51.956;5.888;2023-09-08T04:18:59;14.10;;;8.82;;
37641;SDS011;23486;51.956;5.888;2023-09-08T04:21:28;11.10;;;8.50;;
37641;SDS011;23486;51.956;5.888;2023-09-08T04:23:53;11.20;;;9.18;;
37641;SDS011;23486;51.956;5.888;2023-09-08T04:26:19;9.48;;;8.05;;
37641;SDS011;23486;51.956;5.888;2023-09-08T04:28:45;9.43;;;8.07;;
37641;SDS011;23486;51.956;5.888;2023-09-08T04:31:10;10.38;;;8.50;;
37641;SDS011;23486;51.956;5.888;2023-09-08T04:33:36;10.80;;;8.07;;
37641;SDS011;23486;51.956;5.888;2023-09-08T04:36:01;10.98;;;9.07;;
37641;SDS011;23486;51.956;5.888;2023-09-08T04:38:27;11.40;;;9.32;;
37641;SDS011;23486;51.956;5.888;2023-09-08T04:40:53;10.65;;;9.35;;
37641;SDS011;23486;51.956;5.888;2023-09-08T04:43:18;10.88;;;8.68;;
37641;SDS011;23486;51.956;5.888;2023-09-08T04:45:44;14.82;;;9.45;;
37641;SDS011;23486;51.956;5.888;2023-09-08T04:48:10;11.05;;;9.02;;
37641;SDS011;23486;51.956;5.888;2023-09-08T04:50:36;10.93;;;9.38;;
37641;SDS011;23486;51.956;5.888;2023-09-08T04:53:01;11.82;;;9.13;;
37641;SDS011;23486;51.956;5.888;2023-09-08T04:55:27;10.00;;;8.80;;
37641;SDS011;23486;51.956;5.888;2023-09-08T04:57:53;11.38;;;9.43;;
37641;SDS011;23486;51.956;5.888;2023-09-08T05:00:18;10.27;;;9.10;;
37641;SDS011;23486;51.956;5.888;2023-09-08T05:02:44;13.18;;;9.38;;
37641;SDS011;23486;51.956;5.888;2023-09-08T05:05:10;12.07;;;9.43;;
37641;SDS011;23486;51.956;5.888;2023-09-08T05:07:35;10.85;;;8.98;;
37641;SDS011;23486;51.956;5.888;2023-09-08T05:10:01;12.43;;;10.27;;
37641;SDS011;23486;51.956;5.888;2023-09-08T05:12:26;12.68;;;9.60;;
37641;SDS011;23486;51.956;5.888;2023-09-08T05:14:52;11.40;;;9.77;;
37641;SDS011;23486;51.956;5.888;2023-09-08T05:17:21;12.18;;;10.55;;
37641;SDS011;23486;51.956;5.888;2023-09-08T05:19:48;13.32;;;9.57;;
37641;SDS011;23486;51.956;5.888;2023-09-08T05:22:14;12.82;;;9.68;;
37641;SDS011;23486;51.956;5.888;2023-09-08T05:24:39;11.40;;;9.57;;
37641;SDS011;23486;51.956;5.888;2023-09-08T05:27:05;12.95;;;9.85;;
37641;SDS011;23486;51.956;5.888;2023-09-08T05:29:30;12.82;;;10.48;;
37641;SDS011;23486;51.956;5.888;2023-09-08T05:31:56;12.07;;;10.50;;
37641;SDS011;23486;51.956;5.888;2023-09-08T05:34:21;12.13;;;9.50;;
37641;SDS011;23486;51.956;5.888;2023-09-08T05:36:47;15.55;;;10.02;;
37641;SDS011;23486;51.956;5.888;2023-09-08T05:39:14;14.13;;;10.38;;
37641;SDS011;23486;51.956;5.888;2023-09-08T05:41:41;11.13;;;9.82;;
37641;SDS011;23486;51.956;5.888;2023-09-08T05:44:06;10.52;;;9.20;;
37641;SDS011;23486;51.956;5.888;2023-09-08T05:46:32;13.13;;;10.38;;
37641;SDS011;23486;51.956;5.888;2023-09-08T05:48:58;12.32;;;9.90;;
37641;SDS011;23486;51.956;5.888;2023-09-08T05:51:23;11.32;;;9.90;;
37641;SDS011;23486;51.956;5.888;2023-09-08T05:53:49;12.48;;;10.05;;
37641;SDS011;23486;51.956;5.888;2023-09-08T05:56:14;11.85;;;10.07;;
37641;SDS011;23486;51.956;5.888;2023-09-08T05:58:40;12.02;;;10.10;;
37641;SDS011;23486;51.956;5.888;2023-09-08T06:01:05;13.82;;;10.85;;
37641;SDS011;23486;51.956;5.888;2023-09-08T06:03:32;11.88;;;9.27;;
37641;SDS011;23486;51.956;5.888;2023-09-08T06:05:57;11.60;;;9.68;;
37641;SDS011;23486;51.956;5.888;2023-09-08T06:08:23;11.52;;;9.90;;
37641;SDS011;23486;51.956;5.888;2023-09-08T06:10:49;14.02;;;9.20;;
37641;SDS011;23486;51.956;5.888;2023-09-08T06:13:15;12.70;;;10.30;;
37641;SDS011;23486;51.956;5.888;2023-09-08T06:15:40;13.57;;;11.25;;
37641;SDS011;23486;51.956;5.888;2023-09-08T06:18:06;12.32;;;10.32;;
37641;SDS011;23486;51.956;5.888;2023-09-08T06:20:32;13.05;;;10.73;;
37641;SDS011;23486;51.956;5.888;2023-09-08T06:22:57;14.68;;;9.82;;
37641;SDS011;23486;51.956;5.888;2023-09-08T06:25:23;16.70;;;10.55;;
37641;SDS011;23486;51.956;5.888;2023-09-08T06:27:48;12.75;;;10.68;;
37641;SDS011;23486;51.956;5.888;2023-09-08T06:30:14;16.33;;;11.63;;
37641;SDS011;23486;51.956;5.888;2023-09-08T06:32:42;14.85;;;10.60;;
37641;SDS011;23486;51.956;5.888;2023-09-08T06:35:08;11.88;;;10.50;;
37641;SDS011;23486;51.956;5.888;2023-09-08T06:37:37;10.73;;;9.15;;
37641;SDS011;23486;51.956;5.888;2023-09-08T06:40:04;13.48;;;11.35;;
37641;SDS011;23486;51.956;5.888;2023-09-08T06:42:30;15.70;;;10.95;;
37641;SDS011;23486;51.956;5.888;2023-09-08T06:44:56;13.93;;;10.27;;
37641;SDS011;23486;51.956;5.888;2023-09-08T06:47:21;12.85;;;9.77;;
37641;SDS011;23486;51.956;5.888;2023-09-08T06:49:50;11.32;;;9.68;;
37641;SDS011;23486;51.956;5.888;2023-09-08T06:52:16;11.77;;;8.95;;
37641;SDS011;23486;51.956;5.888;2023-09-08T06:54:43;13.73;;;10.32;;
37641;SDS011;23486;51.956;5.888;2023-09-08T06:57:10;12.10;;;10.10;;
37641;SDS011;23486;51.956;5.888;2023-09-08T06:59:36;12.13;;;9.98;;
37641;SDS011;23486;51.956;5.888;2023-09-08T07:02:02;12.00;;;9.32;;
37641;SDS011;23486;51.956;5.888;2023-09-08T07:04:29;14.23;;;10.05;;
37641;SDS011;23486;51.956;5.888;2023-09-08T07:06:55;11.10;;;9.05;;
37641;SDS011;23486;51.956;5.888;2023-09-08T07:09:21;11.05;;;8.68;;
37641;SDS011;23486;51.956;5.888;2023-09-08T07:11:49;11.70;;;10.20;;
37641;SDS011;23486;51.956;5.888;2023-09-08T07:14:18;13.25;;;10.05;;
37641;SDS011;23486;51.956;5.888;2023-09-08T07:16:43;13.57;;;10.77;;
37641;SDS011;23486;51.956;5.888;2023-09-08T07:19:09;11.27;;;9.82;;
37641;SDS011;23486;51.956;5.888;2023-09-08T07:21:34;11.85;;;10.38;;
37641;SDS011;23486;51.956;5.888;2023-09-08T07:24:00;11.90;;;9.52;;
37641;SDS011;23486;51.956;5.888;2023-09-08T07:26:25;11.85;;;9.73;;
37641;SDS011;23486;51.956;5.888;2023-09-08T07:28:51;10.85;;;9.50;;
37641;SDS011;23486;51.956;5.888;2023-09-08T07:31:17;11.13;;;9.15;;
37641;SDS011;23486;51.956;5.888;2023-09-08T07:33:42;12.40;;;9.43;;
37641;SDS011;23486;51.956;5.888;2023-09-08T07:36:08;11.15;;;8.50;;
37641;SDS011;23486;51.956;5.888;2023-09-08T07:38:34;11.27;;;9.35;;
37641;SDS011;23486;51.956;5.888;2023-09-08T07:41:01;11.43;;;8.70;;
37641;SDS011;23486;51.956;5.888;2023-09-08T07:43:27;11.18;;;9.65;;
37641;SDS011;23486;51.956;5.888;2023-09-08T07:45:53;11.55;;;9.18;;
37641;SDS011;23486;51.956;5.888;2023-09-08T07:48:18;9.88;;;7.50;;
37641;SDS011;23486;51.956;5.888;2023-09-08T07:50:44;10.88;;;8.10;;
37641;SDS011;23486;51.956;5.888;2023-09-08T07:53:09;9.82;;;7.97;;
37641;SDS011;23486;51.956;5.888;2023-09-08T07:55:35;9.38;;;7.20;;
37641;SDS011;23486;51.956;5.888;2023-09-08T07:58:01;8.85;;;7.22;;
37641;SDS011;23486;51.956;5.888;2023-09-08T08:00:28;8.18;;;7.13;;
37641;SDS011;23486;51.956;5.888;2023-09-08T08:02:54;9.75;;;7.38;;
37641;SDS011;23486;51.956;5.888;2023-09-08T08:05:21;10.10;;;7.70;;
37641;SDS011;23486;51.956;5.888;2023-09-08T08:07:53;8.73;;;7.35;;
37641;SDS011;23486;51.956;5.888;2023-09-08T08:10:18;8.45;;;6.63;;
37641;SDS011;23486;51.956;5.888;2023-09-08T08:12:44;9.23;;;7.22;;
37641;SDS011;23486;51.956;5.888;2023-09-08T08:15:10;8.57;;;7.20;;
37641;SDS011;23486;51.956;5.888;2023-09-08T08:17:36;9.45;;;6.45;;
37641;SDS011;23486;51.956;5.888;2023-09-08T08:20:03;9.98;;;6.63;;
37641;SDS011;23486;51.956;5.888;2023-09-08T08:22:34;7.13;;;5.97;;
37641;SDS011;23486;51.956;5.888;2023-09-08T08:25:00;8.68;;;6.15;;
37641;SDS011;23486;51.956;5.888;2023-09-08T08:27:26;7.82;;;6.18;;
37641;SDS011;23486;51.956;5.888;2023-09-08T08:29:51;9.57;;;6.32;;
37641;SDS011;23486;51.956;5.888;2023-09-08T08:32:17;7.60;;;5.53;;
37641;SDS011;23486;51.956;5.888;2023-09-08T08:34:43;8.82;;;5.68;;
37641;SDS011;23486;51.956;5.888;2023-09-08T08:37:10;8.43;;;5.97;;
37641;SDS011;23486;51.956;5.888;2023-09-08T08:39:36;9.60;;;6.35;;
37641;SDS011;23486;51.956;5.888;2023-09-08T08:42:07;9.30;;;7.07;;
37641;SDS011;23486;51.956;5.888;2023-09-08T08:44:34;11.02;;;7.78;;
37641;SDS011;23486;51.956;5.888;2023-09-08T08:47:02;8.52;;;6.45;;
37641;SDS011;23486;51.956;5.888;2023-09-08T08:49:31;9.65;;;7.50;;
37641;SDS011;23486;51.956;5.888;2023-09-08T08:52:00;8.65;;;7.18;;
37641;SDS011;23486;51.956;5.888;2023-09-08T08:54:32;9.40;;;7.80;;
37641;SDS011;23486;51.956;5.888;2023-09-08T08:57:00;9.73;;;7.13;;
37641;SDS011;23486;51.956;5.888;2023-09-08T08:59:26;8.25;;;6.88;;
37641;SDS011;23486;51.956;5.888;2023-09-08T09:01:53;8.95;;;7.25;;
37641;SDS011;23486;51.956;5.888;2023-09-08T09:04:20;9.88;;;7.28;;
37641;SDS011;23486;51.956;5.888;2023-09-08T09:06:46;9.55;;;7.20;;
37641;SDS011;23486;51.956;5.888;2023-09-08T09:09:12;10.38;;;6.90;;
37641;SDS011;23486;51.956;5.888;2023-09-08T09:11:39;8.10;;;6.68;;
37641;SDS011;23486;51.956;5.888;2023-09-08T09:14:08;10.75;;;7.00;;
37641;SDS011;23486;51.956;5.888;2023-09-08T09:16:40;11.63;;;8.13;;
37641;SDS011;23486;51.956;5.888;2023-09-08T09:19:17;8.88;;;7.40;;
37641;SDS011;23486;51.956;5.888;2023-09-08T09:21:50;7.43;;;6.20;;
37641;SDS011;23486;51.956;5.888;2023-09-08T09:27:14;10.30;;;7.15;;
37641;SDS011;23486;51.956;5.888;2023-09-08T09:29:49;8.43;;;6.93;;
37641;SDS011;23486;51.956;5.888;2023-09-08T09:32:15;7.10;;;6.10;;
37641;SDS011;23486;51.956;5.888;2023-09-08T09:34:51;8.23;;;6.50;;
37641;SDS011;23486;51.956;5.888;2023-09-08T09:37:19;8.05;;;5.95;;
37641;SDS011;23486;51.956;5.888;2023-09-08T09:39:48;9.57;;;6.45;;
37641;SDS011;23486;51.956;5.888;2023-09-08T09:42:15;6.20;;;5.38;;
37641;SDS011;23486;51.956;5.888;2023-09-08T09:44:40;8.95;;;6.38;;
37641;SDS011;23486;51.956;5.888;2023-09-08T09:47:06;8.40;;;5.90;;
37641;SDS011;23486;51.956;5.888;2023-09-08T09:49:41;9.10;;;6.70;;
37641;SDS011;23486;51.956;5.888;2023-09-08T09:52:08;7.05;;;6.35;;
37641;SDS011;23486;51.956;5.888;2023-09-08T09:54:36;8.30;;;6.97;;
37641;SDS011;23486;51.956;5.888;2023-09-08T09:57:01;7.45;;;6.65;;
37641;SDS011;23486;51.956;5.888;2023-09-08T09:59:28;9.60;;;7.20;;
37641;SDS011;23486;51.956;5.888;2023-09-08T10:01:54;10.05;;;6.75;;
37641;SDS011;23486;51.956;5.888;2023-09-08T10:04:20;8.48;;;6.72;;
37641;SDS011;23486;51.956;5.888;2023-09-08T10:06:46;7.30;;;5.68;;
37641;SDS011;23486;51.956;5.888;2023-09-08T10:09:12;8.23;;;6.82;;
37641;SDS011;23486;51.956;5.888;2023-09-08T10:11:42;8.52;;;6.43;;
37641;SDS011;23486;51.956;5.888;2023-09-08T10:14:15;7.22;;;5.93;;
37641;SDS011;23486;51.956;5.888;2023-09-08T10:16:43;7.40;;;6.18;;
37641;SDS011;23486;51.956;5.888;2023-09-08T10:19:10;6.65;;;5.70;;
37641;SDS011;23486;51.956;5.888;2023-09-08T10:21:40;6.95;;;6.13;;
37641;SDS011;23486;51.956;5.888;2023-09-08T10:24:17;7.07;;;6.32;;
37641;SDS011;23486;51.956;5.888;2023-09-08T10:27:23;9.38;;;5.88;;
37641;SDS011;23486;51.956;5.888;2023-09-08T10:29:46;7.63;;;6.00;;
37641;SDS011;23486;51.956;5.888;2023-09-08T10:32:13;8.55;;;6.60;;
37641;SDS011;23486;51.956;5.888;2023-09-08T10:34:39;8.52;;;6.80;;
37641;SDS011;23486;51.956;5.888;2023-09-08T10:37:18;8.68;;;6.47;;
37641;SDS011;23486;51.956;5.888;2023-09-08T10:39:54;8.75;;;7.10;;
37641;SDS011;23486;51.956;5.888;2023-09-08T10:42:21;8.10;;;7.30;;
37641;SDS011;23486;51.956;5.888;2023-09-08T10:47:23;9.98;;;7.38;;
37641;SDS011;23486;51.956;5.888;2023-09-08T10:49:50;9.40;;;7.40;;
37641;SDS011;23486;51.956;5.888;2023-09-08T10:52:18;8.55;;;6.25;;
37641;SDS011;23486;51.956;5.888;2023-09-08T10:54:47;8.50;;;6.38;;
37641;SDS011;23486;51.956;5.888;2023-09-08T10:57:15;5.93;;;5.32;;
37641;SDS011;23486;51.956;5.888;2023-09-08T10:59:45;10.95;;;7.32;;
37641;SDS011;23486;51.956;5.888;2023-09-08T11:02:33;5.47;;;4.93;;
37641;SDS011;23486;51.956;5.888;2023-09-08T11:05:16;8.45;;;5.97;;
37641;SDS011;23486;51.956;5.888;2023-09-08T11:07:43;6.10;;;5.50;;
37641;SDS011;23486;51.956;5.888;2023-09-08T11:10:10;7.15;;;5.97;;
37641;SDS011;23486;51.956;5.888;2023-09-08T11:12:36;6.32;;;5.40;;
37641;SDS011;23486;51.956;5.888;2023-09-08T11:15:03;6.03;;;4.85;;
37641;SDS011;23486;51.956;5.888;2023-09-08T11:17:30;7.60;;;4.18;;
37641;SDS011;23486;51.956;5.888;2023-09-08T11:19:57;8.38;;;4.55;;
37641;SDS011;23486;51.956;5.888;2023-09-08T11:22:23;5.30;;;4.20;;
37641;SDS011;23486;51.956;5.888;2023-09-08T11:24:51;5.32;;;4.68;;
37641;SDS011;23486;51.956;5.888;2023-09-08T11:27:17;5.88;;;5.25;;
37641;SDS011;23486;51.956;5.888;2023-09-08T11:29:47;4.90;;;4.30;;
37641;SDS011;23486;51.956;5.888;2023-09-08T11:32:13;5.57;;;3.92;;
37641;SDS011;23486;51.956;5.888;2023-09-08T11:34:38;4.63;;;3.63;;
37641;SDS011;23486;51.956;5.888;2023-09-08T11:37:12;5.93;;;3.88;;
37641;SDS011;23486;51.956;5.888;2023-09-08T11:39:39;4.85;;;4.07;;
37641;SDS011;23486;51.956;5.888;2023-09-08T11:42:06;4.38;;;3.45;;
37641;SDS011;23486;51.956;5.888;2023-09-08T11:44:33;4.88;;;3.72;;
37641;SDS011;23486;51.956;5.888;2023-09-08T11:47:02;4.68;;;3.20;;
37641;SDS011;23486;51.956;5.888;2023-09-08T11:49:38;4.68;;;3.47;;
37641;SDS011;23486;51.956;5.888;2023-09-08T11:52:09;3.17;;;2.53;;
37641;SDS011;23486;51.956;5.888;2023-09-08T11:54:35;4.28;;;3.25;;
37641;SDS011;23486;51.956;5.888;2023-09-08T11:57:03;4.05;;;3.20;;
37641;SDS011;23486;51.956;5.888;2023-09-08T11:59:32;4.88;;;3.75;;
37641;SDS011;23486;51.956;5.888;2023-09-08T12:01:59;6.03;;;3.20;;
37641;SDS011;23486;51.956;5.888;2023-09-08T12:04:25;4.47;;;2.80;;
37641;SDS011;23486;51.956;5.888;2023-09-08T12:06:51;3.67;;;2.95;;
37641;SDS011;23486;51.956;5.888;2023-09-08T12:09:20;5.50;;;2.75;;
37641;SDS011;23486;51.956;5.888;2023-09-08T12:11:46;4.10;;;3.38;;
37641;SDS011;23486;51.956;5.888;2023-09-08T12:14:13;4.70;;;3.60;;
37641;SDS011;23486;51.956;5.888;2023-09-08T12:16:40;4.55;;;3.63;;
37641;SDS011;23486;51.956;5.888;2023-09-08T12:19:07;5.47;;;3.72;;
37641;SDS011;23486;51.956;5.888;2023-09-08T12:21:56;4.68;;;3.30;;
37641;SDS011;23486;51.956;5.888;2023-09-08T12:27:13;3.65;;;3.13;;
37641;SDS011;23486;51.956;5.888;2023-09-08T12:29:39;4.53;;;3.58;;
37641;SDS011;23486;51.956;5.888;2023-09-08T12:32:05;4.75;;;2.92;;
37641;SDS011;23486;51.956;5.888;2023-09-08T12:34:31;4.80;;;3.85;;
37641;SDS011;23486;51.956;5.888;2023-09-08T12:36:57;4.20;;;3.80;;
37641;SDS011;23486;51.956;5.888;2023-09-08T12:39:23;4.38;;;3.75;;
37641;SDS011;23486;51.956;5.888;2023-09-08T12:41:48;3.60;;;2.83;;
37641;SDS011;23486;51.956;5.888;2023-09-08T12:44:14;4.57;;;3.60;;
37641;SDS011;23486;51.956;5.888;2023-09-08T12:46:39;5.78;;;3.20;;
37641;SDS011;23486;51.956;5.888;2023-09-08T12:49:06;5.10;;;3.55;;
37641;SDS011;23486;51.956;5.888;2023-09-08T12:51:32;3.20;;;2.63;;
37641;SDS011;23486;51.956;5.888;2023-09-08T12:53:57;4.00;;;3.38;;
37641;SDS011;23486;51.956;5.888;2023-09-08T12:56:23;4.90;;;3.30;;
37641;SDS011;23486;51.956;5.888;2023-09-08T12:58:48;4.55;;;3.70;;
37641;SDS011;23486;51.956;5.888;2023-09-08T13:01:14;4.38;;;3.97;;
37641;SDS011;23486;51.956;5.888;2023-09-08T13:03:39;5.15;;;3.58;;
37641;SDS011;23486;51.956;5.888;2023-09-08T13:06:05;3.70;;;2.80;;
37641;SDS011;23486;51.956;5.888;2023-09-08T13:08:31;4.47;;;3.13;;
37641;SDS011;23486;51.956;5.888;2023-09-08T13:10:56;3.95;;;3.35;;
37641;SDS011;23486;51.956;5.888;2023-09-08T13:13:22;3.38;;;2.60;;
37641;SDS011;23486;51.956;5.888;2023-09-08T13:15:47;3.72;;;3.22;;
37641;SDS011;23486;51.956;5.888;2023-09-08T13:18:17;4.72;;;3.25;;
37641;SDS011;23486;51.956;5.888;2023-09-08T13:20:42;4.05;;;2.88;;
37641;SDS011;23486;51.956;5.888;2023-09-08T13:23:08;3.72;;;3.05;;
37641;SDS011;23486;51.956;5.888;2023-09-08T13:25:33;5.88;;;2.30;;
37641;SDS011;23486;51.956;5.888;2023-09-08T13:27:59;4.05;;;2.95;;
37641;SDS011;23486;51.956;5.888;2023-09-08T13:30:24;4.60;;;3.03;;
37641;SDS011;23486;51.956;5.888;2023-09-08T13:32:55;3.97;;;2.67;;
37641;SDS011;23486;51.956;5.888;2023-09-08T13:35:21;4.45;;;3.08;;
37641;SDS011;23486;51.956;5.888;2023-09-08T13:37:46;3.53;;;2.70;;
37641;SDS011;23486;51.956;5.888;2023-09-08T13:40:12;4.70;;;2.85;;
37641;SDS011;23486;51.956;5.888;2023-09-08T13:42:38;4.82;;;2.70;;
37641;SDS011;23486;51.956;5.888;2023-09-08T13:45:04;3.83;;;2.90;;
37641;SDS011;23486;51.956;5.888;2023-09-08T13:47:30;3.78;;;2.33;;
37641;SDS011;23486;51.956;5.888;2023-09-08T13:49:55;3.35;;;2.42;;
37641;SDS011;23486;51.956;5.888;2023-09-08T13:52:21;3.15;;;2.58;;
37641;SDS011;23486;51.956;5.888;2023-09-08T13:54:46;3.10;;;1.90;;
37641;SDS011;23486;51.956;5.888;2023-09-08T13:57:12;3.20;;;2.60;;
37641;SDS011;23486;51.956;5.888;2023-09-08T13:59:38;4.68;;;3.00;;
37641;SDS011;23486;51.956;5.888;2023-09-08T14:02:03;4.10;;;2.90;;
37641;SDS011;23486;51.956;5.888;2023-09-08T14:04:31;3.38;;;2.55;;
37641;SDS011;23486;51.956;5.888;2023-09-08T14:06:58;4.18;;;2.55;;
37641;SDS011;23486;51.956;5.888;2023-09-08T14:09:24;3.38;;;2.65;;
37641;SDS011;23486;51.956;5.888;2023-09-08T14:11:51;4.15;;;2.42;;
37641;SDS011;23486;51.956;5.888;2023-09-08T14:14:16;3.10;;;2.10;;
37641;SDS011;23486;51.956;5.888;2023-09-08T14:16:46;3.75;;;2.63;;
37641;SDS011;23486;51.956;5.888;2023-09-08T14:19:12;2.92;;;1.95;;
37641;SDS011;23486;51.956;5.888;2023-09-08T14:21:37;4.55;;;2.08;;
37641;SDS011;23486;51.956;5.888;2023-09-08T14:24:04;3.00;;;2.50;;
37641;SDS011;23486;51.956;5.888;2023-09-08T14:26:30;4.70;;;2.30;;
37641;SDS011;23486;51.956;5.888;2023-09-08T14:28:56;3.63;;;2.28;;
37641;SDS011;23486;51.956;5.888;2023-09-08T14:31:21;2.85;;;2.20;;
37641;SDS011;23486;51.956;5.888;2023-09-08T14:33:47;3.33;;;2.13;;
37641;SDS011;23486;51.956;5.888;2023-09-08T14:36:16;3.90;;;2.95;;
37641;SDS011;23486;51.956;5.888;2023-09-08T14:38:45;3.75;;;2.53;;
37641;SDS011;23486;51.956;5.888;2023-09-08T14:41:10;3.92;;;2.75;;
37641;SDS011;23486;51.956;5.888;2023-09-08T14:43:36;4.30;;;3.13;;
37641;SDS011;23486;51.956;5.888;2023-09-08T14:46:02;3.67;;;2.72;;
37641;SDS011;23486;51.956;5.888;2023-09-08T14:48:30;4.25;;;2.85;;
37641;SDS011;23486;51.956;5.888;2023-09-08T14:50:56;3.50;;;2.72;;
37641;SDS011;23486;51.956;5.888;2023-09-08T14:53:25;6.15;;;2.45;;